createdAt,value
2023-02-27T00:00:16.887Z,68.87
2023-02-27T00:02:45.677Z,70.94
2023-02-27T00:07:46.956Z,66.58
2023-02-27T00:10:14.004Z,65.61
2023-02-27T00:12:41.249Z,68.32
2023-02-27T00:15:09.438Z,66.23
2023-02-27T00:17:36.390Z,64.78
2023-02-27T00:20:04.481Z,64.29
2023-02-27T00:22:31.289Z,67.52
2023-02-27T00:24:58.077Z,70.78
2023-02-27T00:27:24.896Z,71.12
2023-02-27T00:29:51.517Z,73.19
2023-02-27T00:32:18.299Z,68.33
2023-02-27T00:34:44.978Z,68.44
2023-02-27T00:37:11.710Z,73.78
2023-02-27T00:39:38.354Z,70.77
2023-02-27T00:42:05.016Z,74.36
2023-02-27T00:44:31.674Z,63.92
2023-02-27T00:46:58.560Z,69.77
2023-02-27T00:49:25.609Z,69.06
2023-02-27T00:51:53.492Z,73.26
2023-02-27T00:54:20.543Z,73.50
2023-02-27T00:57:04.672Z,73.47
2023-02-27T00:59:31.321Z,77.50
2023-02-27T01:01:58.394Z,74.97
2023-02-27T01:04:25.117Z,78.30
2023-02-27T01:06:51.830Z,78.66
2023-02-27T01:09:18.459Z,75.92
2023-02-27T01:11:45.317Z,77.48
2023-02-27T01:14:11.982Z,79.35
2023-02-27T01:16:38.717Z,76.51
2023-02-27T01:19:05.335Z,74.63
2023-02-27T01:21:31.979Z,76.21
2023-02-27T01:23:58.800Z,79.75
2023-02-27T01:26:25.935Z,79.60
2023-02-27T01:28:52.574Z,79.01
2023-02-27T01:31:19.298Z,81.21
2023-02-27T01:33:46.032Z,78.96
2023-02-27T01:36:12.667Z,82.63
2023-02-27T01:38:39.352Z,82.91
2023-02-27T01:41:07.417Z,82.37
2023-02-27T01:43:34.755Z,84.61
2023-02-27T01:46:01.451Z,84.15
2023-02-27T01:48:34.613Z,81.14
2023-02-27T01:51:22.030Z,82.32
2023-02-27T01:53:52.171Z,83.54
2023-02-27T01:56:29.192Z,85.52
2023-02-27T02:01:37.743Z,82.71
2023-02-27T02:08:27.245Z,86.87
2023-02-27T02:10:55.952Z,84.00
2023-02-27T02:13:23.060Z,84.27
2023-02-27T02:16:10.504Z,80.38
2023-02-27T02:18:58.981Z,84.33
2023-02-27T02:21:50.102Z,79.62
2023-02-27T02:24:59.779Z,78.86
2023-02-27T02:27:53.467Z,79.68
2023-02-27T02:30:26.297Z,77.92
2023-02-27T02:33:17.935Z,78.82
2023-02-27T02:36:18.547Z,80.09
2023-02-27T02:38:50.992Z,81.98
2023-02-27T02:41:39.146Z,83.54
2023-02-27T02:44:36.431Z,85.36
2023-02-27T02:47:08.823Z,81.00
2023-02-27T02:49:50.595Z,83.90
2023-02-27T02:52:43.101Z,83.04
2023-02-27T02:55:23.035Z,84.79
2023-02-27T02:57:57.280Z,87.11
2023-02-27T03:00:37.033Z,82.67
2023-02-27T03:03:12.685Z,79.31
2023-02-27T03:05:48.661Z,80.06
2023-02-27T03:08:20.960Z,79.22
2023-02-27T03:10:57.991Z,79.75
2023-02-27T03:13:30.377Z,81.74
2023-02-27T03:16:03.921Z,81.53
2023-02-27T03:18:37.498Z,84.87
2023-02-27T03:21:10.433Z,83.35
2023-02-27T03:23:44.471Z,83.55
2023-02-27T03:26:15.844Z,85.01
2023-02-27T03:28:54.244Z,83.03
2023-02-27T03:31:28.927Z,84.62
2023-02-27T03:34:02.515Z,88.00
2023-02-27T03:36:37.762Z,88.57
2023-02-27T03:39:14.191Z,87.10
2023-02-27T03:41:49.671Z,89.02
2023-02-27T03:44:31.251Z,86.05
2023-02-27T03:46:58.092Z,85.91
2023-02-27T03:49:24.931Z,84.10
2023-02-27T03:51:51.733Z,87.26
2023-02-27T03:54:27.386Z,83.63
2023-02-27T03:57:01.577Z,81.63
2023-02-27T03:59:43.224Z,82.11
2023-02-27T04:02:10.038Z,83.12
2023-02-27T04:04:36.737Z,86.10
2023-02-27T04:07:23.333Z,86.35
2023-02-27T04:10:18.495Z,87.77
2023-02-27T04:12:53.950Z,88.28
2023-02-27T04:15:36.065Z,88.10
2023-02-27T04:18:11.713Z,88.36
2023-02-27T04:20:44.078Z,86.03
2023-02-27T04:23:23.592Z,87.28
2023-02-27T04:26:09.516Z,87.92
2023-02-27T04:29:10.513Z,86.86
2023-02-27T04:31:59.790Z,87.69
2023-02-27T04:36:27.779Z,89.89
2023-02-27T04:39:04.923Z,91.58
2023-02-27T04:41:47.804Z,91.60
2023-02-27T04:44:16.457Z,93.00
2023-02-27T04:46:45.403Z,93.06
2023-02-27T04:51:58.603Z,91.52
2023-02-27T04:54:31.972Z,94.42
2023-02-27T04:57:03.616Z,93.34
2023-02-27T04:59:41.906Z,93.51
2023-02-27T05:02:26.800Z,94.26
2023-02-27T05:04:58.903Z,96.01
2023-02-27T05:07:33.733Z,93.87
2023-02-27T05:10:08.528Z,93.77
2023-02-27T05:12:38.002Z,95.18
2023-02-27T05:15:16.123Z,94.53
2023-02-27T05:18:10.591Z,93.83
2023-02-27T05:21:12.562Z,95.84
2023-02-27T05:23:52.481Z,95.16
2023-02-27T05:26:37.742Z,94.96
2023-02-27T05:29:20.813Z,93.46
2023-02-27T05:31:51.773Z,94.12
2023-02-27T05:34:27.115Z,94.55
2023-02-27T05:37:01.733Z,95.41
2023-02-27T05:39:31.693Z,95.25
2023-02-27T05:42:02.342Z,94.87
2023-02-27T05:44:35.554Z,95.98
2023-02-27T05:47:10.604Z,94.98
2023-02-27T05:49:43.227Z,94.19
2023-02-27T05:52:15.524Z,94.42
2023-02-27T05:54:55.998Z,94.51
2023-02-27T05:57:27.246Z,94.40
2023-02-27T06:00:06.506Z,94.46
2023-02-27T06:02:33.492Z,94.97
2023-02-27T06:05:00.249Z,94.91
2023-02-27T06:07:26.936Z,94.35
2023-02-27T06:09:53.814Z,95.61
2023-02-27T06:12:20.469Z,93.64
2023-02-27T06:14:47.102Z,93.21
2023-02-27T06:17:13.759Z,92.19
2023-02-27T06:19:40.418Z,93.12
2023-02-27T06:22:07.160Z,91.82
2023-02-27T06:24:33.808Z,94.19
2023-02-27T06:27:00.470Z,94.55
2023-02-27T06:29:27.112Z,89.91
2023-02-27T06:31:53.824Z,89.71
2023-02-27T06:34:20.540Z,90.64
2023-02-27T06:36:48.672Z,89.26
2023-02-27T06:39:15.396Z,90.54
2023-02-27T06:41:42.007Z,91.22
2023-02-27T06:44:08.645Z,90.00
2023-02-27T06:46:35.327Z,89.02
2023-02-27T06:49:02.299Z,84.18
2023-02-27T06:51:28.987Z,75.83
2023-02-27T06:53:55.565Z,76.61
2023-02-27T06:56:22.241Z,79.02
2023-02-27T06:58:48.817Z,82.38
2023-02-27T07:01:15.672Z,78.43
2023-02-27T07:03:42.402Z,80.65
2023-02-27T07:06:09.272Z,73.02
2023-02-27T07:08:36.074Z,74.26
2023-02-27T07:11:02.785Z,72.85
2023-02-27T07:13:29.483Z,70.62
2023-02-27T07:15:56.174Z,72.80
2023-02-27T07:18:23.649Z,73.97
2023-02-27T07:20:51.553Z,70.18
2023-02-27T07:23:18.730Z,69.55
2023-02-27T07:25:47.128Z,66.31
2023-02-27T07:28:14.336Z,67.26
2023-02-27T07:30:41.560Z,69.53
2023-02-27T07:33:08.404Z,70.72
2023-02-27T07:35:35.357Z,69.36
2023-02-27T07:38:02.064Z,68.95
2023-02-27T07:40:28.823Z,66.62
2023-02-27T07:42:55.446Z,68.32
2023-02-27T07:45:23.212Z,65.18
2023-02-27T07:47:49.875Z,64.72
2023-02-27T07:50:17.232Z,66.25
2023-02-27T07:52:44.390Z,67.93
2023-02-27T07:55:12.722Z,66.68
2023-02-27T07:57:39.765Z,66.63
2023-02-27T08:00:07.592Z,67.33
2023-02-27T08:02:34.333Z,63.89
2023-02-27T08:05:01.020Z,65.47
2023-02-27T08:07:27.659Z,63.32
2023-02-27T08:09:54.311Z,64.19
2023-02-27T08:12:21.023Z,64.47
2023-02-27T08:14:47.768Z,61.75
2023-02-27T08:17:14.544Z,62.05
2023-02-27T08:19:41.338Z,64.58
2023-02-27T08:22:07.961Z,57.67
2023-02-27T08:24:34.635Z,59.23
2023-02-27T08:27:01.362Z,59.38
2023-02-27T08:29:28.614Z,61.58
2023-02-27T08:31:55.442Z,62.63
2023-02-27T08:34:22.254Z,60.92
2023-02-27T08:36:48.869Z,61.21
2023-02-27T08:39:15.572Z,62.67
2023-02-27T08:41:42.209Z,58.34
2023-02-27T08:44:08.883Z,58.75
2023-02-27T08:46:35.508Z,59.61
2023-02-27T08:49:02.196Z,59.35
2023-02-27T08:51:29.378Z,60.26
2023-02-27T08:53:59.056Z,60.03
2023-02-27T08:56:27.470Z,60.93
2023-02-27T08:58:55.035Z,60.05
2023-02-27T09:01:22.238Z,59.68
2023-02-27T09:03:48.865Z,59.00
2023-02-27T09:06:15.508Z,59.58
2023-02-27T09:08:42.141Z,57.52
2023-02-27T09:11:08.819Z,59.99
2023-02-27T09:13:36.570Z,57.21
2023-02-27T09:16:03.242Z,56.46
2023-02-27T09:18:30.067Z,59.25
2023-02-27T09:20:56.714Z,57.92
2023-02-27T09:23:23.434Z,58.54
2023-02-27T09:25:50.185Z,57.05
2023-02-27T09:28:16.914Z,53.74
2023-02-27T09:30:43.567Z,55.45
2023-02-27T09:33:10.261Z,55.08
2023-02-27T09:35:37.634Z,55.05
2023-02-27T09:38:04.423Z,54.00
2023-02-27T09:40:37.848Z,54.30
2023-02-27T09:43:16.335Z,53.79
2023-02-27T09:45:44.695Z,52.31
2023-02-27T09:48:32.357Z,51.18
2023-02-27T09:51:00.199Z,52.30
2023-02-27T09:53:31.198Z,53.29
2023-02-27T09:56:05.757Z,52.81
2023-02-27T09:58:43.942Z,51.28
2023-02-27T10:01:21.987Z,48.33
2023-02-27T10:03:55.509Z,49.37
2023-02-27T10:06:35.913Z,50.96
2023-02-27T10:09:18.106Z,47.95
2023-02-27T10:12:09.256Z,48.64
2023-02-27T10:14:43.794Z,48.81
2023-02-27T10:17:19.111Z,48.58
2023-02-27T10:19:48.378Z,47.50
2023-02-27T10:22:22.121Z,50.78
2023-02-27T10:24:54.531Z,50.27
2023-02-27T10:27:23.031Z,52.10
2023-02-27T10:29:50.317Z,50.32
2023-02-27T10:37:21.039Z,53.67
2023-02-27T10:39:55.275Z,53.32
2023-02-27T10:42:24.406Z,51.82
2023-02-27T10:44:53.680Z,52.41
2023-02-27T10:47:25.162Z,53.49
2023-02-27T10:49:53.472Z,48.17
2023-02-27T10:52:20.576Z,48.67
2023-02-27T10:54:47.776Z,48.55
2023-02-27T10:57:42.420Z,48.92
2023-02-27T11:00:28.310Z,46.13
2023-02-27T11:02:55.391Z,47.01
2023-02-27T11:08:22.493Z,49.27
2023-02-27T11:11:12.049Z,47.61
2023-02-27T11:13:41.422Z,47.54
2023-02-27T11:16:15.876Z,46.26
2023-02-27T11:18:45.114Z,47.42
2023-02-27T11:21:18.170Z,49.71
2023-02-27T11:25:19.292Z,46.35
2023-02-27T11:27:46.735Z,51.41
2023-02-27T11:30:28.748Z,48.57
2023-02-27T11:32:58.083Z,49.59
2023-02-27T11:35:34.086Z,46.48
2023-02-27T11:38:04.786Z,45.05
2023-02-27T11:43:24.281Z,47.16
2023-02-27T11:46:41.134Z,48.26
2023-02-27T11:49:24.888Z,45.90
2023-02-27T11:51:58.948Z,46.49
2023-02-27T11:54:41.029Z,48.18
2023-02-27T11:57:40.016Z,46.68
2023-02-27T12:00:16.609Z,48.81
2023-02-27T12:02:55.768Z,46.27
2023-02-27T12:05:25.585Z,47.03
2023-02-27T12:08:07.468Z,46.75
2023-02-27T12:11:11.284Z,46.17
2023-02-27T12:13:43.764Z,47.72
2023-02-27T12:16:16.198Z,46.09
2023-02-27T12:20:25.344Z,43.34
2023-02-27T12:22:54.488Z,46.26
2023-02-27T12:25:30.715Z,47.99
2023-02-27T12:28:19.102Z,46.19
2023-02-27T12:30:56.526Z,44.24
2023-02-27T12:33:26.347Z,45.03
2023-02-27T12:36:00.037Z,44.96
2023-02-27T12:38:26.858Z,43.77
2023-02-27T12:41:16.270Z,45.13
2023-02-27T12:43:59.461Z,45.12
2023-02-27T12:46:49.490Z,45.73
2023-02-27T12:49:20.259Z,43.79
2023-02-27T12:52:01.133Z,45.58
2023-02-27T12:54:54.013Z,45.69
2023-02-27T12:57:44.460Z,45.87
2023-02-27T13:00:18.683Z,47.34
2023-02-27T13:03:18.986Z,48.21
2023-02-27T13:06:06.764Z,48.40
2023-02-27T13:08:39.106Z,50.33
2023-02-27T13:11:24.736Z,49.13
2023-02-27T13:13:59.409Z,49.86
2023-02-27T13:16:40.815Z,50.57
2023-02-27T13:19:24.419Z,49.84
2023-02-27T13:21:59.899Z,54.80
2023-02-27T13:24:31.305Z,56.96
2023-02-27T13:29:47.605Z,56.74
2023-02-27T13:32:32.781Z,58.68
2023-02-27T13:35:19.954Z,60.09
2023-02-27T13:40:45.268Z,58.42
2023-02-27T13:43:40.536Z,57.69
2023-02-27T13:46:30.436Z,58.93
2023-02-27T13:49:06.146Z,58.63
2023-02-27T13:51:45.844Z,57.73
2023-02-27T13:54:22.288Z,60.01
2023-02-27T13:56:48.885Z,60.33
2023-02-27T14:02:05.128Z,59.32
2023-02-27T14:04:36.550Z,60.49
2023-02-27T14:07:07.337Z,61.01
2023-02-27T14:09:41.435Z,61.01
2023-02-27T14:12:42.540Z,60.54
2023-02-27T14:15:22.802Z,60.20
2023-02-27T14:18:12.615Z,60.51
2023-02-27T14:22:10.796Z,60.36
2023-02-27T14:25:00.987Z,59.39
2023-02-27T14:27:43.836Z,59.58
2023-02-27T14:30:36.031Z,60.03
2023-02-27T14:33:37.726Z,60.44
2023-02-27T14:39:23.454Z,59.91
2023-02-27T14:42:01.317Z,59.58
2023-02-27T14:44:53.758Z,59.77
2023-02-27T14:47:24.517Z,59.36
2023-02-27T14:49:51.213Z,58.60
2023-02-27T14:52:24.207Z,58.83
2023-02-27T14:54:51.702Z,58.92
2023-02-27T14:57:26.738Z,59.08
2023-02-27T15:01:15.263Z,58.68
2023-02-27T15:03:48.698Z,58.31
2023-02-27T15:06:22.005Z,57.22
2023-02-27T15:08:52.732Z,57.69
2023-02-27T15:11:22.353Z,57.70
2023-02-27T15:13:56.025Z,58.67
2023-02-27T15:16:32.069Z,59.42
2023-02-27T15:19:23.660Z,59.05
2023-02-27T15:21:53.497Z,57.58
2023-02-27T15:24:49.752Z,57.94
2023-02-27T15:27:22.893Z,57.67
2023-02-27T15:29:54.221Z,57.41
2023-02-27T15:32:38.117Z,59.08
2023-02-27T15:35:16.058Z,58.45
2023-02-27T15:37:50.182Z,60.09
2023-02-27T15:43:01.727Z,60.56
2023-02-27T15:45:32.935Z,60.57
2023-02-27T15:48:00.247Z,60.56
2023-02-27T15:50:43.996Z,61.18
2023-02-27T15:53:17.551Z,62.00
2023-02-27T15:55:52.005Z,60.87
2023-02-27T15:58:18.635Z,60.94
2023-02-27T16:00:45.962Z,61.42
2023-02-27T16:03:22.344Z,60.46
2023-02-27T16:05:53.170Z,59.61
2023-02-27T16:08:21.211Z,58.13
2023-02-27T16:10:50.718Z,59.16
2023-02-27T16:13:34.886Z,60.21
2023-02-27T16:16:21.943Z,60.83
2023-02-27T16:18:51.359Z,60.61
2023-02-27T16:21:25.261Z,58.95
2023-02-27T16:23:52.499Z,58.81
2023-02-27T16:26:32.142Z,59.54
2023-02-27T16:29:00.087Z,60.91
2023-02-27T16:31:36.320Z,61.03
2023-02-27T16:34:13.501Z,61.56
2023-02-27T16:36:42.436Z,61.92
2023-02-27T16:39:15.262Z,60.87
2023-02-27T16:41:41.911Z,61.19
2023-02-27T16:44:08.584Z,61.92
2023-02-27T16:46:35.450Z,62.93
2023-02-27T16:49:14.135Z,61.55
2023-02-27T16:51:46.127Z,61.83
2023-02-27T16:54:13.832Z,62.00
2023-02-27T16:56:41.116Z,59.52
2023-02-27T16:59:15.843Z,59.95
2023-02-27T17:01:42.844Z,60.05
2023-02-27T17:05:15.257Z,60.93
2023-02-27T17:07:42.906Z,61.13
2023-02-27T17:10:14.898Z,61.63
2023-02-27T17:12:43.756Z,60.67
2023-02-27T17:15:10.732Z,60.23
2023-02-27T17:17:37.354Z,60.41
2023-02-27T17:20:07.441Z,62.35
2023-02-27T17:22:42.221Z,62.37
2023-02-27T17:25:09.540Z,62.56
2023-02-27T17:27:36.416Z,61.61
2023-02-27T17:32:47.392Z,61.40
2023-02-27T17:35:14.094Z,62.58
2023-02-27T17:37:40.896Z,60.83
2023-02-27T17:40:08.329Z,61.36
2023-02-27T17:42:39.324Z,60.57
2023-02-27T17:45:07.683Z,61.06
2023-02-27T17:47:34.955Z,62.20
2023-02-27T17:50:01.646Z,61.04
2023-02-27T17:52:28.374Z,61.54
2023-02-27T17:54:55.720Z,60.68
2023-02-27T17:57:22.453Z,62.36
2023-02-27T17:59:49.161Z,61.10
2023-02-27T18:02:15.862Z,61.81
2023-02-27T18:04:42.871Z,62.09
2023-02-27T18:07:09.684Z,62.52
2023-02-27T18:09:36.361Z,61.36
2023-02-27T18:12:03.115Z,62.19
2023-02-27T18:14:30.148Z,62.11
2023-02-27T18:16:57.066Z,62.39
2023-02-27T18:19:25.288Z,61.18
2023-02-27T18:21:51.991Z,61.26
2023-02-27T18:24:18.665Z,61.64
2023-02-27T18:26:45.518Z,62.21
2023-02-27T18:29:14.002Z,62.20
2023-02-27T18:31:43.344Z,63.69
2023-02-27T18:34:11.459Z,63.18
2023-02-27T18:36:38.718Z,61.94
2023-02-27T18:39:06.136Z,61.07
2023-02-27T18:41:33.707Z,62.50
2023-02-27T18:44:00.458Z,64.07
2023-02-27T18:46:28.435Z,62.40
2023-02-27T18:49:53.902Z,63.03
2023-02-27T18:54:58.544Z,61.51
2023-02-27T18:57:25.266Z,60.78
2023-02-27T18:59:51.933Z,61.84
2023-02-27T19:02:19.854Z,62.15
2023-02-27T19:04:48.123Z,62.58
2023-02-27T19:07:16.258Z,62.42
2023-02-27T19:09:43.110Z,62.85
2023-02-27T19:12:11.016Z,63.58
2023-02-27T19:14:40.909Z,63.37
2023-02-27T19:19:48.792Z,63.96
2023-02-27T19:22:15.398Z,62.45
2023-02-27T19:24:42.078Z,63.09
2023-02-27T19:27:08.768Z,63.69
2023-02-27T19:29:35.476Z,64.24
2023-02-27T19:32:02.318Z,64.90
2023-02-27T19:34:29.248Z,64.46
2023-02-27T19:36:56.058Z,64.78
2023-02-27T19:39:23.028Z,63.79
2023-02-27T19:41:49.686Z,63.96
2023-02-27T19:44:16.339Z,64.63
2023-02-27T19:46:44.389Z,65.03
2023-02-27T19:49:11.000Z,65.82
2023-02-27T19:51:38.895Z,65.61
2023-02-27T19:54:06.384Z,65.90
2023-02-27T19:56:33.414Z,66.02
2023-02-27T19:59:00.850Z,65.92
2023-02-27T20:01:31.176Z,66.59
2023-02-27T20:03:59.248Z,67.17
2023-02-27T20:06:29.078Z,66.54
2023-02-27T20:08:57.259Z,66.11
2023-02-27T20:11:24.194Z,67.45
2023-02-27T20:13:51.937Z,68.11
2023-02-27T20:16:22.363Z,68.74
2023-02-27T20:18:50.120Z,68.73
2023-02-27T20:21:19.998Z,68.98
2023-02-27T20:23:47.491Z,69.38
2023-02-27T20:26:22.959Z,67.62
2023-02-27T20:28:52.170Z,69.25
2023-02-27T20:31:21.382Z,68.71
2023-02-27T20:33:49.500Z,68.94
2023-02-27T20:36:16.870Z,68.19
2023-02-27T20:38:44.297Z,68.37
2023-02-27T20:41:22.372Z,69.52
2023-02-27T20:43:49.538Z,69.41
2023-02-27T20:46:20.747Z,68.24
2023-02-27T20:48:47.849Z,69.59
2023-02-27T20:51:17.693Z,66.87
2023-02-27T20:53:47.343Z,67.96
2023-02-27T20:56:14.641Z,67.41
2023-02-27T20:58:41.667Z,67.89
2023-02-27T21:01:13.077Z,68.19
2023-02-27T21:03:41.594Z,69.27
2023-02-27T21:06:12.194Z,70.13
2023-02-27T21:08:41.722Z,70.04
2023-02-27T21:11:10.694Z,69.35
2023-02-27T21:13:37.636Z,70.02
2023-02-27T21:18:10.113Z,71.01
2023-02-27T21:20:40.048Z,69.89
2023-02-27T21:23:07.068Z,70.86
2023-02-27T21:25:33.735Z,72.10
2023-02-27T21:28:02.368Z,72.67
2023-02-27T21:30:30.178Z,72.50
2023-02-27T21:32:57.819Z,73.45
2023-02-27T21:35:24.678Z,74.04
2023-02-27T21:40:33.123Z,74.50
2023-02-27T21:42:59.730Z,73.96
2023-02-27T21:48:02.143Z,71.43
2023-02-27T21:50:29.730Z,71.35
2023-02-27T21:52:56.364Z,70.69
2023-02-27T21:55:23.063Z,71.67
2023-02-27T22:00:02.430Z,72.07
2023-02-27T22:02:29.180Z,71.91
2023-02-27T22:07:45.589Z,73.09
2023-02-27T22:10:12.394Z,74.20
2023-02-27T22:12:39.034Z,74.59
2023-02-27T22:15:06.123Z,75.07
2023-02-27T22:17:32.750Z,75.08
2023-02-27T22:19:59.398Z,74.99
2023-02-27T22:22:26.136Z,75.34
2023-02-27T22:24:52.876Z,75.50
2023-02-27T22:27:19.539Z,75.35
2023-02-27T22:29:46.208Z,75.39
2023-02-27T22:32:12.911Z,75.22
2023-02-27T22:34:39.689Z,75.04
2023-02-27T22:39:45.576Z,74.67
2023-02-27T22:42:12.222Z,74.76
2023-02-27T22:47:14.800Z,75.43
2023-02-27T22:49:41.683Z,75.50
2023-02-27T22:52:08.419Z,76.36
2023-02-27T22:54:35.087Z,76.57
2023-02-27T22:59:10.120Z,76.01
2023-02-27T23:01:37.933Z,77.09
2023-02-27T23:04:07.392Z,76.92
2023-02-27T23:06:37.310Z,77.04
2023-02-27T23:09:05.840Z,76.57
2023-02-27T23:11:32.816Z,77.30
2023-02-27T23:14:00.134Z,77.57
2023-02-27T23:16:26.982Z,77.67
2023-02-27T23:18:56.243Z,77.38
2023-02-27T23:21:31.964Z,77.89
2023-02-27T23:23:58.718Z,78.33
2023-02-27T23:28:30.880Z,78.86
2023-02-27T23:30:57.551Z,78.28
2023-02-27T23:33:24.214Z,78.62
2023-02-27T23:35:51.956Z,78.63
2023-02-27T23:38:19.032Z,78.32
2023-02-27T23:40:46.057Z,79.44
2023-02-27T23:43:31.119Z,79.01
2023-02-27T23:45:57.803Z,79.05
2023-02-27T23:48:24.503Z,79.66
2023-02-27T23:50:51.199Z,80.59
2023-02-27T23:53:19.045Z,80.95
2023-02-27T23:55:45.691Z,82.18
2023-02-27T23:58:12.425Z,82.58
